Time;durP1;ratioP1;P1;durP2;ratioP2;P2;SDS_P1;SDS_P2;PMS_P1;PMS_P2;Temp;Humidity;BMP_temperature;BMP_pressure;BME280_temperature;BME280_humidity;BME280_pressure;Samples;Min_cycle;Max_cycle;Signal;HPM_P1;HPM_P2
2021/11/13 00:00:01;;;;;;;109.47;44.85;;;;;;;4.16;100.00;101082.38;5007502;28;20040;-77
2021/11/13 00:02:27;;;;;;;109.30;44.15;;;;;;;4.17;100.00;101091.84;4986639;28;20054;-75
2021/11/13 00:04:53;;;;;;;105.97;43.83;;;;;;;4.21;100.00;101085.53;5024497;28;20044;-73
2021/11/13 00:07:19;;;;;;;108.15;42.88;;;;;;;4.14;100.00;101084.25;4982336;28;20041;-73
2021/11/13 00:09:45;;;;;;;100.97;41.80;;;;;;;4.18;100.00;101080.53;5007615;28;20068;-75
2021/11/13 00:12:11;;;;;;;105.63;41.20;;;;;;;4.16;100.00;101082.38;5009378;28;20068;-75
2021/11/13 00:14:36;;;;;;;103.55;43.20;;;;;;;4.16;100.00;101077.19;4997536;28;20040;-76
2021/11/13 00:17:03;;;;;;;95.60;39.88;;;;;;;4.17;100.00;101071.91;4991898;28;20131;-76
2021/11/13 00:19:30;;;;;;;101.80;41.80;;;;;;;4.16;100.00;101074.59;5023059;28;20096;-76
2021/11/13 00:21:59;;;;;;;104.18;42.15;;;;;;;4.12;100.00;101068.75;5006263;28;20403;-74
2021/11/13 00:24:28;;;;;;;;;;;;;;;4.13;100.00;101067.03;4993116;28;20049;-75
2021/11/13 00:26:54;;;;;;;109.60;45.58;;;;;;;4.17;100.00;101069.31;5007754;28;19913;-75
2021/11/13 00:29:20;;;;;;;95.32;41.88;;;;;;;4.16;100.00;101072.00;5006463;28;20052;-75
2021/11/13 00:31:46;;;;;;;102.20;42.22;;;;;;;4.22;100.00;101074.19;4987275;28;20044;-75
2021/11/13 00:34:13;;;;;;;100.53;41.88;;;;;;;4.14;100.00;101071.25;5020455;28;20817;-75
2021/11/13 00:36:38;;;;;;;103.85;41.90;;;;;;;4.10;100.00;101068.03;4989379;28;20602;-76
2021/11/13 00:39:08;;;;;;;105.28;42.95;;;;;;;4.08;100.00;101060.31;4990732;28;20045;-76
2021/11/13 00:41:36;;;;;;;102.97;41.80;;;;;;;4.11;100.00;101056.72;5002719;28;20038;-74
2021/11/13 00:44:04;;;;;;;100.55;41.08;;;;;;;4.07;100.00;101063.03;4995655;28;20037;-74
2021/11/13 00:46:30;;;;;;;105.43;43.30;;;;;;;4.04;100.00;101060.63;4965592;28;20487;-76
2021/11/13 00:48:56;;;;;;;104.25;40.78;;;;;;;4.06;100.00;101045.78;5009096;28;20042;-76
2021/11/13 00:51:22;;;;;;;99.43;39.85;;;;;;;4.03;100.00;101052.03;5014464;28;20125;-75
2021/11/13 00:53:48;;;;;;;104.80;42.20;;;;;;;4.01;100.00;101051.28;5003571;28;20041;-76
2021/11/13 00:56:14;;;;;;;109.18;42.08;;;;;;;4.01;100.00;101056.47;5006455;28;20084;-75
2021/11/13 00:58:41;;;;;;;108.95;43.13;;;;;;;4.00;100.00;101061.75;5008269;28;20518;-74
2021/11/13 01:01:07;;;;;;;111.20;43.53;;;;;;;4.00;100.00;101059.16;4993212;28;20048;-75
2021/11/13 01:03:34;;;;;;;100.15;41.47;;;;;;;3.97;100.00;101057.56;5002755;28;20042;-75
2021/11/13 01:06:00;;;;;;;101.95;40.97;;;;;;;3.99;100.00;101060.06;5008294;28;20052;-75
2021/11/13 01:08:29;;;;;;;102.75;41.63;;;;;;;3.99;100.00;101053.13;4992167;28;20045;-75
2021/11/13 01:10:55;;;;;;;110.65;44.53;;;;;;;4.00;100.00;101053.97;5005264;28;20061;-76
2021/11/13 01:13:22;;;;;;;106.05;40.15;;;;;;;4.02;100.00;101045.16;4993615;28;20064;-76
2021/11/13 01:15:53;;;;;;;95.65;41.13;;;;;;;4.04;100.00;101040.69;5009712;28;20893;-76
2021/11/13 01:18:19;;;;;;;106.35;42.55;;;;;;;4.03;100.00;101030.41;4992196;28;20052;-75
2021/11/13 01:20:44;;;;;;;103.03;42.83;;;;;;;4.01;100.00;101035.72;4995625;28;20502;-76
2021/11/13 01:23:10;;;;;;;106.53;42.63;;;;;;;4.03;100.00;101039.03;4989513;28;20051;-75
2021/11/13 01:25:36;;;;;;;108.60;41.53;;;;;;;4.01;100.00;101035.72;5007323;28;20042;-74
2021/11/13 01:28:02;;;;;;;98.45;41.40;;;;;;;4.02;100.00;101041.72;4978358;28;20083;-77
2021/11/13 01:30:31;;;;;;;95.70;41.58;;;;;;;3.98;100.00;101051.47;5003289;28;20928;-76
2021/11/13 01:32:57;;;;;;;98.68;39.60;;;;;;;3.96;100.00;101057.69;5008846;28;20033;-75
2021/11/13 01:35:24;;;;;;;96.60;40.50;;;;;;;3.98;100.00;101063.63;4995901;28;20034;-74
2021/11/13 01:37:51;;;;;;;100.97;41.40;;;;;;;3.97;100.00;101057.56;4986589;28;20064;-75
2021/11/13 01:40:19;;;;;;;100.38;40.20;;;;;;;4.01;100.00;101053.88;5015365;28;20361;-75
2021/11/13 01:42:47;;;;;;;98.13;40.95;;;;;;;4.06;100.00;101056.16;4982743;28;20459;-75
2021/11/13 01:45:15;;;;;;;92.50;38.63;;;;;;;4.06;100.00;101053.56;5022469;28;20084;-75
2021/11/13 01:47:42;;;;;;;86.00;35.08;;;;;;;4.03;100.00;101044.22;4980069;28;20045;-76
2021/11/13 01:50:23;;;;;;;90.80;38.28;;;;;;;4.04;100.00;101047.66;5011361;28;20124;-77
2021/11/13 01:52:50;;;;;;;89.13;38.58;;;;;;;4.08;100.00;101042.16;5011574;28;20506;-76
2021/11/13 01:55:21;;;;;;;93.10;39.20;;;;;;;4.08;100.00;101039.56;4974771;28;20408;-77
2021/11/13 01:57:48;;;;;;;90.97;38.75;;;;;;;3.90;100.00;101017.38;5008417;28;20050;-76
2021/11/13 02:00:29;;;;;;;92.05;38.47;;;;;;;4.04;100.00;101038.09;5007711;28;20041;-75
2021/11/13 02:02:56;;;;;;;88.18;39.65;;;;;;;3.99;100.00;101024.56;5024155;28;20049;-75
2021/11/13 02:05:22;;;;;;;83.80;38.38;;;;;;;4.09;100.00;101038.66;4994352;28;20025;-75
2021/11/13 02:07:48;;;;;;;85.85;38.40;;;;;;;4.07;100.00;101034.50;5001917;28;20033;-76
2021/11/13 02:10:17;;;;;;;91.50;38.05;;;;;;;4.08;100.00;101036.13;4983415;28;20047;-76
2021/11/13 02:12:43;;;;;;;88.47;40.05;;;;;;;3.89;100.00;101015.72;5008972;28;20045;-75
2021/11/13 02:15:11;;;;;;;88.05;39.30;;;;;;;4.07;100.00;101043.09;4994829;28;20045;-75
2021/11/13 02:17:37;;;;;;;88.95;40.08;;;;;;;4.06;100.00;101040.59;5000791;28;20041;-76
2021/11/13 02:20:21;;;;;;;91.47;41.75;;;;;;;4.05;100.00;101039.78;4997345;28;20083;-77
2021/11/13 02:22:51;;;;;;;95.45;41.63;;;;;;;4.07;100.00;101037.91;4978400;28;20045;-75
2021/11/13 02:25:24;;;;;;;98.72;39.97;;;;;;;3.99;100.00;101034.13;5008161;28;20052;-75
2021/11/13 02:27:50;;;;;;;88.15;39.38;;;;;;;4.05;100.00;101031.13;4996304;28;20046;-75
2021/11/13 02:30:17;;;;;;;86.18;38.67;;;;;;;4.12;100.00;101032.41;5029684;28;20455;-75
2021/11/13 02:32:45;;;;;;;84.68;38.15;;;;;;;4.05;100.00;101032.00;4993219;28;20033;-76
2021/11/13 02:35:13;;;;;;;85.25;37.80;;;;;;;4.03;100.00;101033.00;4995309;28;20325;-76
2021/11/13 02:37:42;;;;;;;81.85;37.15;;;;;;;4.14;100.00;101045.31;4993494;28;20121;-77
2021/11/13 02:40:09;;;;;;;76.15;34.72;;;;;;;4.18;100.00;101033.78;4993227;28;20041;-77
2021/11/13 02:42:36;;;;;;;77.00;34.70;;;;;;;4.16;100.00;101031.28;4980673;28;20491;-75
2021/11/13 02:45:08;;;;;;;72.55;34.63;;;;;;;4.17;100.00;101037.31;5010885;28;20048;-77
2021/11/13 02:47:35;;;;;;;74.18;34.53;;;;;;;4.24;100.00;101034.25;4981678;28;20044;-74
2021/11/13 02:50:03;;;;;;;75.82;35.20;;;;;;;4.24;100.00;101030.81;4983964;28;20036;-75
2021/11/13 02:52:51;;;;;;;79.07;35.90;;;;;;;4.19;100.00;101044.06;4989318;28;20199;-76
2021/11/13 02:55:20;;;;;;;72.38;34.33;;;;;;;4.08;100.00;101025.75;5015598;28;20053;-76
2021/11/13 02:57:46;;;;;;;69.00;33.72;;;;;;;4.22;100.00;101033.50;5014170;28;20034;-75
2021/11/13 03:00:17;;;;;;;74.70;34.72;;;;;;;4.24;100.00;101028.22;5013800;28;20029;-74
2021/11/13 03:02:43;;;;;;;72.35;34.45;;;;;;;4.28;100.00;101029.69;5014377;28;20033;-77
2021/11/13 03:05:28;;;;;;;78.10;34.55;;;;;;;4.20;100.00;101022.41;4998320;28;20029;-76
2021/11/13 03:07:58;;;;;;;76.43;33.85;;;;;;;4.20;100.00;101025.00;5012865;28;20037;-75
2021/11/13 03:10:26;;;;;;;73.78;35.03;;;;;;;4.24;100.00;101029.06;5025967;28;20037;-74
2021/11/13 03:12:52;;;;;;;79.00;35.85;;;;;;;4.22;100.00;101025.72;5014140;28;20069;-76
2021/11/13 03:15:20;;;;;;;75.65;33.03;;;;;;;4.21;100.00;101021.44;5024065;28;20499;-76
2021/11/13 03:17:48;;;;;;;70.18;34.75;;;;;;;4.24;100.00;101015.25;5012612;28;20080;-76
2021/11/13 03:20:17;;;;;;;78.75;33.05;;;;;;;4.20;100.00;101021.53;5024814;28;20061;-75
2021/11/13 03:22:44;;;;;;;66.65;33.55;;;;;;;4.18;100.00;101010.41;5010227;28;20527;-76
2021/11/13 03:25:13;;;;;;;71.65;33.58;;;;;;;4.20;100.00;101017.19;4994603;28;20037;-76
2021/11/13 03:27:49;;;;;;;69.38;32.67;;;;;;;4.23;100.00;101021.34;4996004;28;20034;-75
2021/11/13 03:30:15;;;;;;;75.65;34.10;;;;;;;4.31;100.00;101021.69;4981979;28;20184;-75
2021/11/13 03:32:41;;;;;;;69.72;34.28;;;;;;;4.30;100.00;101025.22;5025941;28;20030;-75
2021/11/13 03:35:08;;;;;;;73.60;32.88;;;;;;;4.26;100.00;101026.34;5030660;28;20115;-76
2021/11/13 03:37:35;;;;;;;64.32;32.42;;;;;;;4.32;100.00;101027.72;5011436;28;20065;-77
2021/11/13 03:40:01;;;;;;;67.13;31.60;;;;;;;4.33;100.00;101021.59;4995968;28;20557;-76
2021/11/13 03:42:29;;;;;;;70.63;33.60;;;;;;;4.34;100.00;101018.06;5006393;28;20034;-76
2021/11/13 03:44:57;;;;;;;75.45;35.17;;;;;;;4.28;100.00;101008.91;5027235;28;20449;-75
2021/11/13 03:47:22;;;;;;;75.07;35.15;;;;;;;4.31;100.00;101019.09;5008012;28;20038;-76
2021/11/13 03:49:49;;;;;;;71.88;34.00;;;;;;;4.35;100.00;101023.16;5028072;28;20045;-76
2021/11/13 03:52:14;;;;;;;77.38;35.08;;;;;;;4.29;100.00;101016.59;5008200;28;20518;-77
2021/11/13 03:54:40;;;;;;;75.05;35.17;;;;;;;4.30;100.00;101020.03;5027705;28;20053;-77
2021/11/13 03:57:08;;;;;;;68.90;33.33;;;;;;;4.29;100.00;101014.00;4994058;28;20037;-76
2021/11/13 03:59:33;;;;;;;71.43;33.40;;;;;;;4.23;100.00;101016.16;5023237;28;20415;-77
2021/11/13 04:02:00;;;;;;;65.70;32.60;;;;;;;4.26;100.00;101021.16;5015477;28;20040;-76
2021/11/13 04:04:28;;;;;;;73.18;32.53;;;;;;;4.29;100.00;101020.94;5027438;28;20052;-76
2021/11/13 04:06:53;;;;;;;76.40;34.10;;;;;;;4.23;100.00;101026.53;5009960;28;20029;-75
2021/11/13 04:09:19;;;;;;;70.30;33.70;;;;;;;4.24;100.00;101034.25;5023789;28;20045;-76
2021/11/13 04:11:45;;;;;;;76.32;34.10;;;;;;;4.23;100.00;101035.16;5002319;28;20026;-77
2021/11/13 04:14:11;;;;;;;70.28;33.15;;;;;;;4.25;100.00;101028.09;5012695;28;20037;-75
2021/11/13 04:16:37;;;;;;;75.90;35.13;;;;;;;4.20;100.00;101030.19;5019636;28;20044;-76
2021/11/13 04:19:09;;;;;;;69.80;33.90;;;;;;;4.21;100.00;101018.84;5007891;28;20124;-75
2021/11/13 04:21:35;;;;;;;75.95;34.83;;;;;;;4.21;100.00;101021.44;4993488;28;20459;-76
2021/11/13 04:24:01;;;;;;;64.38;32.38;;;;;;;4.22;100.00;101022.28;5002353;28;20044;-75
2021/11/13 04:26:26;;;;;;;71.25;33.60;;;;;;;4.23;100.00;101026.53;4997071;28;20053;-76
2021/11/13 04:28:52;;;;;;;74.38;34.60;;;;;;;4.18;100.00;101015.63;5007885;28;20040;-76
2021/11/13 04:31:17;;;;;;;65.63;32.65;;;;;;;4.22;100.00;101019.66;5002574;28;20731;-76
2021/11/13 04:33:43;;;;;;;73.35;33.85;;;;;;;4.23;100.00;101023.94;5009574;28;20044;-75
2021/11/13 04:36:17;;;;;;;68.65;33.25;;;;;;;4.19;100.00;101018.13;5026894;28;20040;-75
2021/11/13 04:38:42;;;;;;;66.43;32.72;;;;;;;4.21;100.00;101031.84;5013470;28;20034;-75
2021/11/13 04:41:08;;;;;;;65.90;32.70;;;;;;;4.26;100.00;101024.59;5027301;28;20029;-76
2021/11/13 04:43:34;;;;;;;66.30;34.08;;;;;;;4.23;100.00;101019.56;5005339;28;20037;-76
2021/11/13 04:45:59;;;;;;;66.32;31.85;;;;;;;4.29;100.00;101018.34;5005075;28;20052;-75
2021/11/13 04:48:25;;;;;;;73.65;34.63;;;;;;;4.32;100.00;101018.16;5010023;28;20395;-77
2021/11/13 04:50:51;;;;;;;63.80;32.70;;;;;;;4.28;100.00;101024.50;5008896;28;20683;-76
2021/11/13 04:53:17;;;;;;;68.22;32.25;;;;;;;4.27;100.00;101015.03;5024147;28;20034;-76
2021/11/13 04:55:42;;;;;;;69.45;32.75;;;;;;;4.26;100.00;101026.34;5024895;28;20041;-77
2021/11/13 04:58:08;;;;;;;68.47;32.70;;;;;;;4.26;100.00;101031.56;5022229;28;20120;-76
2021/11/13 05:00:35;;;;;;;64.05;32.13;;;;;;;4.32;100.00;101035.53;5006335;28;20620;-76
2021/11/13 05:03:02;;;;;;;64.05;31.20;;;;;;;4.33;100.00;101034.56;4993399;28;20033;-76
2021/11/13 05:05:28;;;;;;;68.35;31.95;;;;;;;4.28;100.00;101032.28;5011127;28;20029;-77
2021/11/13 05:07:55;;;;;;;65.75;31.73;;;;;;;4.28;100.00;101043.50;5017754;28;20025;-77
2021/11/13 05:10:20;;;;;;;67.07;32.58;;;;;;;4.26;100.00;101040.16;4998656;28;20037;-77
2021/11/13 05:12:47;;;;;;;61.10;31.73;;;;;;;4.37;100.00;101042.09;5007244;28;20558;-76
2021/11/13 05:15:12;;;;;;;62.95;30.83;;;;;;;4.38;100.00;101040.31;4975955;28;20198;-78
2021/11/13 05:17:38;;;;;;;68.05;32.08;;;;;;;4.40;100.00;101041.03;5014158;28;20636;-76
2021/11/13 05:20:09;;;;;;;68.40;32.13;;;;;;;4.39;100.00;101044.56;5023975;28;20056;-76
2021/11/13 05:22:36;;;;;;;67.00;33.08;;;;;;;4.35;100.00;101037.91;5024140;28;20043;-75
2021/11/13 05:25:04;;;;;;;66.72;31.92;;;;;;;4.33;100.00;101037.16;5005561;28;20103;-76
2021/11/13 05:27:31;;;;;;;69.85;34.10;;;;;;;4.31;100.00;101034.66;5007071;28;20059;-75
2021/11/13 05:29:58;;;;;;;69.45;33.95;;;;;;;4.31;100.00;101037.25;4976520;28;20130;-75
2021/11/13 05:32:26;;;;;;;71.30;32.70;;;;;;;4.27;100.00;101034.03;5006527;28;20406;-76
2021/11/13 05:34:51;;;;;;;69.43;35.25;;;;;;;4.24;100.00;101033.41;5009484;28;20033;-76
2021/11/13 05:37:17;;;;;;;67.85;33.10;;;;;;;4.20;100.00;101037.97;5020152;28;20032;-76
2021/11/13 05:39:42;;;;;;;77.97;34.65;;;;;;;4.23;100.00;101031.75;5021559;28;20495;-76
2021/11/13 05:42:08;;;;;;;73.80;32.78;;;;;;;4.22;100.00;101040.44;4978222;28;20025;-78
2021/11/13 05:44:35;;;;;;;73.07;33.45;;;;;;;4.27;100.00;101041.00;4991497;28;20041;-75
2021/11/13 05:47:02;;;;;;;75.28;34.15;;;;;;;4.27;100.00;101047.00;4977363;28;20033;-75
2021/11/13 05:49:27;;;;;;;73.88;34.55;;;;;;;4.23;100.00;101045.53;4997331;28;20033;-75
2021/11/13 05:51:53;;;;;;;73.25;36.08;;;;;;;4.19;100.00;101038.06;5023403;28;20037;-74
2021/11/13 05:54:18;;;;;;;72.28;35.05;;;;;;;4.21;100.00;101039.63;5007882;28;20542;-74
2021/11/13 05:56:44;;;;;;;79.38;36.00;;;;;;;4.10;100.00;101042.88;5011052;28;20025;-75
2021/11/13 05:59:11;;;;;;;80.22;36.38;;;;;;;4.10;100.00;101039.47;4992743;28;20053;-75
2021/11/13 06:01:39;;;;;;;76.20;35.40;;;;;;;4.10;100.00;101048.09;5011428;28;20403;-77
2021/11/13 06:04:04;;;;;;;73.80;34.83;;;;;;;4.15;100.00;101039.19;5004357;28;20044;-75
2021/11/13 06:06:30;;;;;;;85.32;37.22;;;;;;;4.12;100.00;101039.38;5018294;28;20132;-74
2021/11/13 06:08:56;;;;;;;79.28;36.63;;;;;;;4.10;100.00;101042.88;5013396;28;20458;-74
2021/11/13 06:11:22;;;;;;;77.85;36.47;;;;;;;4.10;100.00;101048.09;5008958;28;20041;-78
2021/11/13 06:13:47;;;;;;;71.32;34.83;;;;;;;4.06;100.00;101038.81;5026277;28;20045;-73
2021/11/13 06:16:15;;;;;;;82.47;36.85;;;;;;;4.05;100.00;101039.78;5020799;28;20037;-73
2021/11/13 06:18:41;;;;;;;76.22;36.65;;;;;;;4.05;100.00;101042.38;5025757;28;20045;-75
2021/11/13 06:21:08;;;;;;;82.93;37.08;;;;;;;4.09;100.00;101048.19;5009242;28;20034;-76
2021/11/13 06:23:35;;;;;;;78.55;36.38;;;;;;;4.06;100.00;101033.63;5017357;28;20041;-75
2021/11/13 06:26:01;;;;;;;80.78;35.78;;;;;;;4.07;100.00;101050.06;5008362;28;20041;-75
2021/11/13 06:28:27;;;;;;;79.43;36.65;;;;;;;4.12;100.00;101048.00;4986109;28;20498;-76
2021/11/13 06:30:53;;;;;;;77.90;36.38;;;;;;;4.17;100.00;101047.72;5011816;28;20041;-74
2021/11/13 06:33:18;;;;;;;78.00;34.85;;;;;;;4.17;100.00;101055.50;5028252;28;20124;-76
2021/11/13 06:35:45;;;;;;;79.55;34.92;;;;;;;4.17;100.00;101058.09;5024725;28;20112;-76
2021/11/13 06:38:11;;;;;;;74.03;35.17;;;;;;;4.16;100.00;101056.41;4989673;28;20161;-75
2021/11/13 06:40:37;;;;;;;75.47;34.30;;;;;;;4.12;100.00;101063.56;5020732;28;20045;-75
2021/11/13 06:43:03;;;;;;;78.22;36.58;;;;;;;4.09;100.00;101067.19;5026261;28;20502;-74
2021/11/13 06:45:32;;;;;;;77.38;36.08;;;;;;;4.09;100.00;101069.81;5023800;28;20057;-75
2021/11/13 06:47:57;;;;;;;75.68;36.95;;;;;;;4.08;100.00;101078.50;5021589;28;20092;-77
2021/11/13 06:50:23;;;;;;;74.03;35.47;;;;;;;4.07;100.00;101078.63;5024492;28;20037;-74
2021/11/13 06:52:48;;;;;;;75.47;35.90;;;;;;;4.15;100.00;101080.72;5011386;28;20033;-75
2021/11/13 06:55:15;;;;;;;72.40;35.40;;;;;;;4.13;100.00;101083.41;5024387;28;20045;-75
2021/11/13 06:57:41;;;;;;;69.10;34.58;;;;;;;4.13;100.00;101090.38;5012722;28;20048;-75
2021/11/13 07:00:10;;;;;;;72.13;34.97;;;;;;;4.13;100.00;101088.63;5010581;28;20410;-75
2021/11/13 07:02:36;;;;;;;74.03;34.95;;;;;;;4.17;100.00;101086.66;5014360;28;20453;-76
2021/11/13 07:05:03;;;;;;;68.55;33.33;;;;;;;4.23;100.00;101094.88;5021601;28;20052;-75
2021/11/13 07:07:32;;;;;;;69.40;34.10;;;;;;;4.17;100.00;101090.09;5008472;28;20037;-76
2021/11/13 07:10:03;;;;;;;70.78;33.90;;;;;;;4.16;100.00;101087.56;5022227;28;20056;-75
2021/11/13 07:12:29;;;;;;;79.55;35.40;;;;;;;4.27;100.00;101095.53;5022674;28;20040;-76
2021/11/13 07:14:55;;;;;;;69.60;33.97;;;;;;;4.32;100.00;101100.44;5028175;28;20040;-74
2021/11/13 07:17:20;;;;;;;67.07;33.33;;;;;;;4.29;100.00;101098.84;5009986;28;20045;-75
2021/11/13 07:19:46;;;;;;;72.57;34.67;;;;;;;4.29;100.00;101098.84;5008324;28;20052;-75
2021/11/13 07:22:13;;;;;;;73.97;33.33;;;;;;;4.36;100.00;101112.31;5025170;28;20151;-74
2021/11/13 07:24:40;;;;;;;62.55;32.88;;;;;;;4.33;100.00;101110.72;5027694;28;20432;-75
2021/11/13 07:27:06;;;;;;;67.78;32.72;;;;;;;4.29;100.00;101109.25;5015294;28;20056;-75
2021/11/13 07:29:32;;;;;;;70.03;32.90;;;;;;;4.32;100.00;101116.84;5016292;28;20037;-75
2021/11/13 07:31:57;;;;;;;71.47;33.50;;;;;;;4.33;100.00;101115.91;4995064;28;20392;-75
2021/11/13 07:34:23;;;;;;;73.38;35.75;;;;;;;4.33;100.00;101113.31;5029050;28;20497;-74
2021/11/13 07:36:49;;;;;;;71.97;33.78;;;;;;;4.39;100.00;101117.28;5007724;28;20123;-74
2021/11/13 07:39:14;;;;;;;70.35;33.53;;;;;;;4.37;100.00;101127.78;5019313;28;20056;-75
2021/11/13 07:41:40;;;;;;;68.07;33.45;;;;;;;4.42;100.00;101122.28;5026666;28;20108;-75
2021/11/13 07:44:07;;;;;;;65.80;32.47;;;;;;;4.37;100.00;101132.13;5012437;28;20033;-75
2021/11/13 07:46:34;;;;;;;65.50;31.77;;;;;;;4.37;100.00;101132.13;5013931;28;20038;-75
2021/11/13 07:49:00;;;;;;;64.57;31.70;;;;;;;4.39;100.00;101141.50;5021385;28;20050;-75
2021/11/13 07:51:25;;;;;;;71.47;31.55;;;;;;;4.35;100.00;101141.78;5024675;28;20505;-74
2021/11/13 07:53:51;;;;;;;63.70;31.75;;;;;;;4.34;100.00;101140.13;5026008;28;20462;-75
2021/11/13 07:56:16;;;;;;;68.97;31.67;;;;;;;4.34;100.00;101148.75;5010766;28;20029;-75
2021/11/13 07:58:42;;;;;;;71.57;33.13;;;;;;;4.35;100.00;101145.25;5027959;28;20390;-74
2021/11/13 08:01:08;;;;;;;64.93;31.20;;;;;;;4.34;100.00;101143.56;5027356;28;20086;-73
2021/11/13 08:03:33;;;;;;;61.95;31.33;;;;;;;4.33;100.00;101148.84;5018188;28;20109;-75
2021/11/13 08:05:59;;;;;;;64.90;31.75;;;;;;;4.33;100.00;101152.25;4998286;28;20045;-75
2021/11/13 08:08:24;;;;;;;61.22;29.90;;;;;;;4.35;100.00;101157.38;4993036;28;20053;-76
2021/11/13 08:10:50;;;;;;;61.75;30.17;;;;;;;4.34;100.00;101153.94;5012241;28;20029;-75
2021/11/13 08:13:18;;;;;;;59.70;30.98;;;;;;;4.42;100.00;101169.88;4985224;28;20063;-75
2021/11/13 08:15:43;;;;;;;64.65;32.65;;;;;;;4.46;100.00;101162.72;4989578;28;20045;-76
2021/11/13 08:18:10;;;;;;;58.15;29.38;;;;;;;4.42;100.00;101164.69;5021359;28;20025;-76
2021/11/13 08:20:37;;;;;;;58.83;30.38;;;;;;;4.41;100.00;101163.03;5015263;28;20065;-75
2021/11/13 08:23:08;;;;;;;62.92;32.22;;;;;;;4.43;100.00;101165.53;5029179;28;20124;-76
2021/11/13 08:25:35;;;;;;;59.50;31.15;;;;;;;4.41;100.00;101162.19;5009697;28;20038;-75
2021/11/13 08:28:01;;;;;;;63.67;31.67;;;;;;;4.43;100.00;101160.34;5024623;28;20042;-74
2021/11/13 08:30:30;;;;;;;67.50;32.50;;;;;;;4.52;100.00;101167.56;5012828;28;20513;-75
2021/11/13 08:32:56;;;;;;;63.53;31.52;;;;;;;4.55;100.00;101167.34;5013028;28;20106;-74
2021/11/13 08:35:22;;;;;;;61.17;31.50;;;;;;;4.57;100.00;101160.28;4995766;28;20403;-74
2021/11/13 08:37:48;;;;;;;58.83;30.15;;;;;;;4.66;100.00;101169.25;5004321;28;20465;-74
2021/11/13 08:40:14;;;;;;;59.63;29.42;;;;;;;4.64;100.00;101166.75;5006279;28;20108;-75
2021/11/13 08:42:40;;;;;;;62.15;30.63;;;;;;;4.64;100.00;101168.53;5009558;28;20096;-76
2021/11/13 08:45:07;;;;;;;60.80;29.98;;;;;;;4.69;100.00;101166.47;5011796;28;20073;-76
2021/11/13 08:47:35;;;;;;;54.92;29.55;;;;;;;4.67;100.00;101165.72;5010711;28;20042;-75
2021/11/13 08:50:00;;;;;;;57.58;30.02;;;;;;;4.74;100.00;101166.16;5019565;28;20112;-75
2021/11/13 08:52:26;;;;;;;55.05;28.98;;;;;;;4.72;100.00;101166.25;5009440;28;20079;-75
2021/11/13 08:54:52;;;;;;;56.70;30.00;;;;;;;4.71;100.00;101168.97;5018886;28;20682;-75
2021/11/13 08:57:18;;;;;;;54.17;28.33;;;;;;;4.72;100.00;101168.88;4983989;28;20045;-74
2021/11/13 08:59:43;;;;;;;54.33;28.27;;;;;;;4.71;100.00;101168.97;4993224;28;20137;-75
2021/11/13 09:02:14;;;;;;;58.13;27.98;;;;;;;4.76;100.00;101170.31;4994620;28;20113;-74
2021/11/13 09:04:42;;;;;;;57.00;29.65;;;;;;;4.78;100.00;101162.44;4996314;28;20355;-76
2021/11/13 09:07:08;;;;;;;56.83;28.65;;;;;;;4.73;100.00;101172.28;5025339;28;20049;-76
2021/11/13 09:09:37;;;;;;;56.63;29.90;;;;;;;4.76;100.00;101172.09;5021577;28;20595;-76
2021/11/13 09:12:06;;;;;;;53.58;29.17;;;;;;;4.87;100.00;101172.25;4996796;28;20037;-75
2021/11/13 09:14:33;;;;;;;59.05;29.45;;;;;;;4.83;100.00;101170.78;5009963;28;20494;-75
2021/11/13 09:17:00;;;;;;;53.75;28.80;;;;;;;4.84;100.00;101170.69;4995574;28;20764;-75
2021/11/13 09:19:27;;;;;;;54.53;28.65;;;;;;;4.95;100.00;101175.19;5020677;28;20678;-75
2021/11/13 09:21:53;;;;;;;56.22;27.63;;;;;;;4.93;100.00;101181.41;5008613;28;20399;-76
2021/11/13 09:24:23;;;;;;;55.25;28.08;;;;;;;4.95;100.00;101175.19;5017639;28;20103;-76
2021/11/13 09:26:49;;;;;;;52.00;28.20;;;;;;;5.04;100.00;101182.38;5011743;28;20395;-75
2021/11/13 09:29:15;;;;;;;55.75;27.48;;;;;;;5.07;100.00;101184.78;4989404;28;20045;-75
2021/11/13 09:31:44;;;;;;;54.45;27.13;;;;;;;5.14;100.00;101185.25;5025241;28;20041;-74
2021/11/13 09:34:11;;;;;;;52.92;28.40;;;;;;;5.17;100.00;101186.78;5020748;28;20029;-74
2021/11/13 09:36:38;;;;;;;57.75;28.20;;;;;;;5.23;100.00;101191.59;5020121;28;20084;-73
2021/11/13 09:39:04;;;;;;;53.88;27.63;;;;;;;5.19;100.00;101201.34;4991608;28;20077;-73
2021/11/13 09:41:30;;;;;;;50.20;26.55;;;;;;;5.20;100.00;101200.44;5017989;28;20033;-73
2021/11/13 09:43:56;;;;;;;51.20;27.15;;;;;;;5.17;100.00;101202.41;4987231;28;20037;-75
2021/11/13 09:46:22;;;;;;;56.63;26.85;;;;;;;5.17;100.00;101199.78;5006177;28;20084;-74
2021/11/13 09:48:52;;;;;;;54.28;27.50;;;;;;;5.29;100.00;101211.16;5022760;28;20068;-75
2021/11/13 09:51:19;;;;;;;50.85;27.27;;;;;;;5.30;100.00;101203.25;5002742;28;20087;-76
2021/11/13 09:53:46;;;;;;;51.13;27.60;;;;;;;5.26;100.00;101201.81;4989944;28;20037;-76
2021/11/13 09:56:12;;;;;;;46.78;27.10;;;;;;;5.29;100.00;101195.56;5006555;28;20122;-76
2021/11/13 09:58:38;;;;;;;53.35;26.60;;;;;;;5.24;100.00;101198.47;5022735;28;20491;-75
2021/11/13 10:01:04;;;;;;;51.47;27.95;;;;;;;5.29;100.00;101198.16;4991083;28;20434;-75
2021/11/13 10:03:30;;;;;;;52.35;27.15;;;;;;;5.33;100.00;101205.66;5023090;28;20552;-74
2021/11/13 10:06:02;;;;;;;52.20;27.13;;;;;;;5.27;100.00;101203.44;5003106;28;20521;-71
2021/11/13 10:08:28;;;;;;;53.45;27.58;;;;;;;5.32;100.00;101209.19;5003124;28;20916;-75
2021/11/13 10:11:00;;;;;;;59.97;29.05;;;;;;;5.43;100.00;101213.69;5006507;28;20030;-76
2021/11/13 10:13:38;;;;;;;53.80;27.58;;;;;;;5.47;100.00;101221.19;5008359;28;20124;-75
2021/11/13 10:16:11;;;;;;;49.05;26.42;;;;;;;5.43;100.00;101222.31;5033360;28;20025;-76
2021/11/13 10:18:42;;;;;;;49.83;27.67;;;;;;;5.51;100.00;101224.41;4995207;28;20037;-75
2021/11/13 10:21:18;;;;;;;50.35;26.92;;;;;;;5.51;100.00;101226.19;5006683;28;20041;-77
2021/11/13 10:23:51;;;;;;;52.55;26.02;;;;;;;5.53;100.00;101232.13;5023268;28;20060;-74
2021/11/13 10:26:28;;;;;;;48.03;24.55;;;;;;;5.52;100.00;101230.44;5001923;28;20044;-76
2021/11/13 10:29:05;;;;;;;42.65;23.45;;;;;;;5.50;100.00;101227.97;5021330;28;20057;-74
2021/11/13 10:31:36;;;;;;;47.78;25.77;;;;;;;5.51;100.00;101223.59;4986429;28;20038;-76
2021/11/13 10:34:05;;;;;;;48.95;25.20;;;;;;;5.54;100.00;101228.56;4991565;28;20513;-74
2021/11/13 10:36:35;;;;;;;43.53;24.85;;;;;;;5.58;100.00;101228.28;5005443;28;20045;-75
2021/11/13 10:39:07;;;;;;;45.50;25.15;;;;;;;5.64;100.00;101237.44;4994302;28;20045;-75
2021/11/13 10:41:46;;;;;;;45.97;25.50;;;;;;;5.60;100.00;101233.38;4992086;28;20044;-74
2021/11/13 10:44:12;;;;;;;47.05;26.35;;;;;;;5.50;100.00;101229.72;4987420;28;20033;-75
2021/11/13 10:46:42;;;;;;;43.47;24.77;;;;;;;5.51;100.00;101231.41;5021171;28;20033;-75
2021/11/13 10:49:08;;;;;;;49.47;26.40;;;;;;;5.50;100.00;101233.16;5006517;28;20431;-73
2021/11/13 10:51:35;;;;;;;50.88;26.17;;;;;;;5.53;100.00;101232.94;5009323;28;20046;-75
2021/11/13 10:54:14;;;;;;;46.05;26.92;;;;;;;5.59;100.00;101227.31;4991685;28;20040;-73
2021/11/13 10:56:46;;;;;;;51.47;27.48;;;;;;;5.59;100.00;101234.31;5016212;28;20041;-73
2021/11/13 10:59:12;;;;;;;50.55;26.92;;;;;;;5.65;100.00;101232.16;5022410;28;20112;-73
2021/11/13 11:01:45;;;;;;;47.08;27.02;;;;;;;5.63;100.00;101227.97;5020070;28;20116;-76
2021/11/13 11:04:16;;;;;;;51.15;26.98;;;;;;;5.68;100.00;101227.66;4974241;28;20045;-76
2021/11/13 11:06:47;;;;;;;46.83;24.98;;;;;;;5.69;100.00;101232.78;5017513;28;20058;-74
2021/11/13 11:09:22;;;;;;;48.83;26.17;;;;;;;5.62;100.00;101232.34;4992300;28;20555;-74